sensor_id;sensor_type;location;lat;lon;timestamp;temperature;humidity
736;DHT22;352;48.626;9.238;2023-04-29T00:01:27;14.10;99.90
736;DHT22;352;48.626;9.238;2023-04-29T00:03:53;14.10;99.90
736;DHT22;352;48.626;9.238;2023-04-29T00:06:20;14.00;99.90
736;DHT22;352;48.626;9.238;2023-04-29T00:08:47;14.00;99.90
736;DHT22;352;48.626;9.238;2023-04-29T00:11:15;14.00;99.90
736;DHT22;352;48.626;9.238;2023-04-29T00:13:42;14.00;99.90
736;DHT22;352;48.626;9.238;2023-04-29T00:16:09;14.00;99.90
736;DHT22;352;48.626;9.238;2023-04-29T00:18:35;13.90;99.90
736;DHT22;352;48.626;9.238;2023-04-29T00:21:02;13.90;99.90
736;DHT22;352;48.626;9.238;2023-04-29T00:23:31;13.90;99.90
736;DHT22;352;48.626;9.238;2023-04-29T00:25:58;13.80;99.90
736;DHT22;352;48.626;9.238;2023-04-29T00:28:26;13.80;99.90
736;DHT22;352;48.626;9.238;2023-04-29T00:30:52;13.80;99.90
736;DHT22;352;48.626;9.238;2023-04-29T00:33:20;13.80;99.90
736;DHT22;352;48.626;9.238;2023-04-29T00:35:47;13.80;99.90
736;DHT22;352;48.626;9.238;2023-04-29T00:38:13;13.80;99.90
736;DHT22;352;48.626;9.238;2023-04-29T00:40:41;13.70;99.90
736;DHT22;352;48.626;9.238;2023-04-29T00:43:08;13.80;99.90
736;DHT22;352;48.626;9.238;2023-04-29T00:45:36;13.70;99.90
736;DHT22;352;48.626;9.238;2023-04-29T00:48:03;13.70;99.90
736;DHT22;352;48.626;9.238;2023-04-29T00:50:30;13.70;99.90
736;DHT22;352;48.626;9.238;2023-04-29T00:52:57;13.70;99.90
736;DHT22;352;48.626;9.238;2023-04-29T00:55:24;13.60;99.90
736;DHT22;352;48.626;9.238;2023-04-29T00:57:51;13.60;99.90
736;DHT22;352;48.626;9.238;2023-04-29T01:00:18;13.60;99.90
736;DHT22;352;48.626;9.238;2023-04-29T01:02:47;13.60;99.90
736;DHT22;352;48.626;9.238;2023-04-29T01:05:14;13.50;99.90
736;DHT22;352;48.626;9.238;2023-04-29T01:07:47;13.50;99.90
736;DHT22;352;48.626;9.238;2023-04-29T01:10:24;13.50;99.90
736;DHT22;352;48.626;9.238;2023-04-29T01:13:00;13.50;99.90
736;DHT22;352;48.626;9.238;2023-04-29T01:15:31;13.50;99.90
736;DHT22;352;48.626;9.238;2023-04-29T01:18:04;13.40;99.90
736;DHT22;352;48.626;9.238;2023-04-29T01:20:37;13.40;99.90
736;DHT22;352;48.626;9.238;2023-04-29T01:23:04;13.40;99.90
736;DHT22;352;48.626;9.238;2023-04-29T01:25:32;13.30;99.90
736;DHT22;352;48.626;9.238;2023-04-29T01:28:05;13.30;99.90
736;DHT22;352;48.626;9.238;2023-04-29T01:30:41;13.30;99.90
736;DHT22;352;48.626;9.238;2023-04-29T01:33:16;13.30;99.90
736;DHT22;352;48.626;9.238;2023-04-29T01:35:56;13.30;99.90
736;DHT22;352;48.626;9.238;2023-04-29T01:38:29;13.20;99.90
736;DHT22;352;48.626;9.238;2023-04-29T01:41:09;13.10;99.90
736;DHT22;352;48.626;9.238;2023-04-29T01:43:36;13.00;99.90
736;DHT22;352;48.626;9.238;2023-04-29T01:46:05;12.90;99.90
736;DHT22;352;48.626;9.238;2023-04-29T01:48:34;12.90;99.90
736;DHT22;352;48.626;9.238;2023-04-29T01:51:01;12.80;99.90
736;DHT22;352;48.626;9.238;2023-04-29T01:53:28;12.70;99.90
736;DHT22;352;48.626;9.238;2023-04-29T01:55:55;12.70;99.90
736;DHT22;352;48.626;9.238;2023-04-29T01:58:23;12.70;99.90
736;DHT22;352;48.626;9.238;2023-04-29T02:00:49;12.70;99.90
736;DHT22;352;48.626;9.238;2023-04-29T02:03:16;12.60;99.90
736;DHT22;352;48.626;9.238;2023-04-29T02:05:43;12.60;99.90
736;DHT22;352;48.626;9.238;2023-04-29T02:08:09;12.60;99.90
736;DHT22;352;48.626;9.238;2023-04-29T02:10:37;12.60;99.90
736;DHT22;352;48.626;9.238;2023-04-29T02:13:04;12.60;99.90
736;DHT22;352;48.626;9.238;2023-04-29T02:15:32;12.60;99.90
736;DHT22;352;48.626;9.238;2023-04-29T02:17:59;12.60;99.90
736;DHT22;352;48.626;9.238;2023-04-29T02:20:25;12.60;99.90
736;DHT22;352;48.626;9.238;2023-04-29T02:22:52;12.60;99.90
736;DHT22;352;48.626;9.238;2023-04-29T02:25:19;12.60;99.90
736;DHT22;352;48.626;9.238;2023-04-29T02:27:45;12.60;99.90
736;DHT22;352;48.626;9.238;2023-04-29T02:30:12;12.60;99.90
736;DHT22;352;48.626;9.238;2023-04-29T02:32:40;12.60;99.90
736;DHT22;352;48.626;9.238;2023-04-29T02:35:07;12.60;99.90
736;DHT22;352;48.626;9.238;2023-04-29T02:37:34;12.60;99.90
736;DHT22;352;48.626;9.238;2023-04-29T02:40:01;12.60;99.90
736;DHT22;352;48.626;9.238;2023-04-29T02:42:28;12.60;99.90
736;DHT22;352;48.626;9.238;2023-04-29T02:44:55;12.60;99.90
736;DHT22;352;48.626;9.238;2023-04-29T02:47:22;12.60;99.90
736;DHT22;352;48.626;9.238;2023-04-29T02:49:50;12.60;99.90
736;DHT22;352;48.626;9.238;2023-04-29T02:52:17;12.60;99.90
736;DHT22;352;48.626;9.238;2023-04-29T02:54:44;12.60;99.90
736;DHT22;352;48.626;9.238;2023-04-29T02:57:10;12.50;99.90
736;DHT22;352;48.626;9.238;2023-04-29T02:59:37;12.50;99.90
736;DHT22;352;48.626;9.238;2023-04-29T03:02:04;12.40;99.90
736;DHT22;352;48.626;9.238;2023-04-29T03:04:31;12.40;99.90
736;DHT22;352;48.626;9.238;2023-04-29T03:06:59;12.40;99.90
736;DHT22;352;48.626;9.238;2023-04-29T03:09:25;12.40;99.90
736;DHT22;352;48.626;9.238;2023-04-29T03:11:52;12.40;99.90
736;DHT22;352;48.626;9.238;2023-04-29T03:14:19;12.40;99.90
736;DHT22;352;48.626;9.238;2023-04-29T03:16:46;12.40;99.90
736;DHT22;352;48.626;9.238;2023-04-29T03:19:12;12.30;99.90
736;DHT22;352;48.626;9.238;2023-04-29T03:21:39;12.20;99.90
736;DHT22;352;48.626;9.238;2023-04-29T03:24:07;12.20;99.90
736;DHT22;352;48.626;9.238;2023-04-29T03:26:34;12.10;99.90
736;DHT22;352;48.626;9.238;2023-04-29T03:29:01;12.10;99.90
736;DHT22;352;48.626;9.238;2023-04-29T03:31:27;12.10;99.90
736;DHT22;352;48.626;9.238;2023-04-29T03:33:54;12.10;99.90
736;DHT22;352;48.626;9.238;2023-04-29T03:36:21;12.00;99.90
736;DHT22;352;48.626;9.238;2023-04-29T03:38:48;12.00;99.90
736;DHT22;352;48.626;9.238;2023-04-29T03:41:16;11.90;99.90
736;DHT22;352;48.626;9.238;2023-04-29T03:43:42;12.00;99.90
736;DHT22;352;48.626;9.238;2023-04-29T03:46:09;11.80;99.90
736;DHT22;352;48.626;9.238;2023-04-29T03:48:36;11.70;99.90
736;DHT22;352;48.626;9.238;2023-04-29T03:51:03;11.50;99.90
736;DHT22;352;48.626;9.238;2023-04-29T03:53:30;11.50;99.90
736;DHT22;352;48.626;9.238;2023-04-29T03:55:57;11.40;99.90
736;DHT22;352;48.626;9.238;2023-04-29T03:58:25;11.50;99.90
736;DHT22;352;48.626;9.238;2023-04-29T04:00:52;11.50;99.90
736;DHT22;352;48.626;9.238;2023-04-29T04:03:19;11.40;99.90
736;DHT22;352;48.626;9.238;2023-04-29T04:05:47;11.40;99.90
736;DHT22;352;48.626;9.238;2023-04-29T04:08:13;11.40;99.90
736;DHT22;352;48.626;9.238;2023-04-29T04:10:40;11.40;99.90
736;DHT22;352;48.626;9.238;2023-04-29T04:13:07;11.40;99.90
736;DHT22;352;48.626;9.238;2023-04-29T04:15:35;11.30;99.90
736;DHT22;352;48.626;9.238;2023-04-29T04:18:02;11.30;99.90
736;DHT22;352;48.626;9.238;2023-04-29T04:20:29;11.30;99.90
736;DHT22;352;48.626;9.238;2023-04-29T04:22:55;11.30;99.90
736;DHT22;352;48.626;9.238;2023-04-29T04:25:22;11.30;99.90
736;DHT22;352;48.626;9.238;2023-04-29T04:27:49;11.30;99.90
736;DHT22;352;48.626;9.238;2023-04-29T04:30:15;11.20;99.90
736;DHT22;352;48.626;9.238;2023-04-29T04:32:43;11.20;99.90
736;DHT22;352;48.626;9.238;2023-04-29T04:35:10;11.10;99.90
736;DHT22;352;48.626;9.238;2023-04-29T04:37:37;11.00;99.90
736;DHT22;352;48.626;9.238;2023-04-29T04:40:05;11.00;99.90
736;DHT22;352;48.626;9.238;2023-04-29T04:42:32;11.00;99.90
736;DHT22;352;48.626;9.238;2023-04-29T04:44:59;11.00;99.90
736;DHT22;352;48.626;9.238;2023-04-29T04:47:26;11.00;99.90
736;DHT22;352;48.626;9.238;2023-04-29T04:49:54;11.00;99.90
736;DHT22;352;48.626;9.238;2023-04-29T04:52:20;11.10;99.90
736;DHT22;352;48.626;9.238;2023-04-29T04:54:47;11.10;99.90
736;DHT22;352;48.626;9.238;2023-04-29T04:57:14;11.10;99.90
736;DHT22;352;48.626;9.238;2023-04-29T04:59:41;11.20;99.90
736;DHT22;352;48.626;9.238;2023-04-29T05:02:08;11.20;99.90
736;DHT22;352;48.626;9.238;2023-04-29T05:04:34;11.30;99.90
736;DHT22;352;48.626;9.238;2023-04-29T05:07:03;11.30;99.90
736;DHT22;352;48.626;9.238;2023-04-29T05:09:29;11.40;99.90
736;DHT22;352;48.626;9.238;2023-04-29T05:11:56;11.50;99.90
736;DHT22;352;48.626;9.238;2023-04-29T05:14:24;11.50;99.90
736;DHT22;352;48.626;9.238;2023-04-29T05:16:50;11.60;99.90
736;DHT22;352;48.626;9.238;2023-04-29T05:19:17;11.70;99.90
736;DHT22;352;48.626;9.238;2023-04-29T05:21:44;11.80;99.90
736;DHT22;352;48.626;9.238;2023-04-29T05:24:12;11.80;99.90
736;DHT22;352;48.626;9.238;2023-04-29T05:26:39;11.90;99.90
736;DHT22;352;48.626;9.238;2023-04-29T05:29:08;12.00;99.90
736;DHT22;352;48.626;9.238;2023-04-29T05:31:34;12.10;99.90
736;DHT22;352;48.626;9.238;2023-04-29T05:34:01;12.20;99.90
736;DHT22;352;48.626;9.238;2023-04-29T05:36:28;12.30;99.90
736;DHT22;352;48.626;9.238;2023-04-29T05:38:54;12.50;99.90
736;DHT22;352;48.626;9.238;2023-04-29T05:41:23;12.70;99.90
736;DHT22;352;48.626;9.238;2023-04-29T05:43:50;12.90;99.90
736;DHT22;352;48.626;9.238;2023-04-29T05:46:17;13.10;99.90
736;DHT22;352;48.626;9.238;2023-04-29T05:48:44;13.30;99.90
736;DHT22;352;48.626;9.238;2023-04-29T05:51:12;13.60;99.90
736;DHT22;352;48.626;9.238;2023-04-29T05:53:39;13.90;99.90
736;DHT22;352;48.626;9.238;2023-04-29T05:56:06;14.20;99.90
736;DHT22;352;48.626;9.238;2023-04-29T05:58:34;14.50;99.90
736;DHT22;352;48.626;9.238;2023-04-29T06:01:01;14.80;99.90
736;DHT22;352;48.626;9.238;2023-04-29T06:03:27;15.00;99.90
736;DHT22;352;48.626;9.238;2023-04-29T06:05:55;15.20;99.90
736;DHT22;352;48.626;9.238;2023-04-29T06:08:23;15.40;99.90
736;DHT22;352;48.626;9.238;2023-04-29T06:10:50;15.70;99.90
736;DHT22;352;48.626;9.238;2023-04-29T06:13:17;15.90;99.90
736;DHT22;352;48.626;9.238;2023-04-29T06:15:45;16.10;99.90
736;DHT22;352;48.626;9.238;2023-04-29T06:18:12;16.30;99.90
736;DHT22;352;48.626;9.238;2023-04-29T06:20:38;16.40;99.90
736;DHT22;352;48.626;9.238;2023-04-29T06:23:05;16.60;99.90
736;DHT22;352;48.626;9.238;2023-04-29T06:25:33;16.80;99.90
736;DHT22;352;48.626;9.238;2023-04-29T06:28:00;17.00;99.90
736;DHT22;352;48.626;9.238;2023-04-29T06:30:28;17.30;99.90
736;DHT22;352;48.626;9.238;2023-04-29T06:32:56;17.60;99.90
736;DHT22;352;48.626;9.238;2023-04-29T06:35:23;17.90;99.90
736;DHT22;352;48.626;9.238;2023-04-29T06:37:50;18.20;99.90
736;DHT22;352;48.626;9.238;2023-04-29T06:40:17;18.50;99.90
736;DHT22;352;48.626;9.238;2023-04-29T06:42:44;18.70;99.90
736;DHT22;352;48.626;9.238;2023-04-29T06:45:11;18.90;99.90
736;DHT22;352;48.626;9.238;2023-04-29T06:47:37;19.10;99.90
736;DHT22;352;48.626;9.238;2023-04-29T06:50:07;19.10;99.90
736;DHT22;352;48.626;9.238;2023-04-29T06:52:34;19.10;99.90
736;DHT22;352;48.626;9.238;2023-04-29T06:55:01;19.10;99.90
736;DHT22;352;48.626;9.238;2023-04-29T06:57:28;19.20;99.90
736;DHT22;352;48.626;9.238;2023-04-29T06:59:54;19.40;99.90
736;DHT22;352;48.626;9.238;2023-04-29T07:02:21;19.80;99.90
736;DHT22;352;48.626;9.238;2023-04-29T07:04:48;20.10;99.90
736;DHT22;352;48.626;9.238;2023-04-29T07:07:16;20.20;99.90
736;DHT22;352;48.626;9.238;2023-04-29T07:09:43;20.40;99.90
736;DHT22;352;48.626;9.238;2023-04-29T07:12:10;20.50;99.90
736;DHT22;352;48.626;9.238;2023-04-29T07:14:37;20.80;99.90
736;DHT22;352;48.626;9.238;2023-04-29T07:17:05;21.00;99.90
736;DHT22;352;48.626;9.238;2023-04-29T07:19:31;21.20;99.90
736;DHT22;352;48.626;9.238;2023-04-29T07:21:58;21.50;99.90
736;DHT22;352;48.626;9.238;2023-04-29T07:24:26;21.80;99.90
736;DHT22;352;48.626;9.238;2023-04-29T07:26:56;22.00;99.90
736;DHT22;352;48.626;9.238;2023-04-29T07:29:23;21.80;99.90
736;DHT22;352;48.626;9.238;2023-04-29T07:31:49;21.40;99.90
736;DHT22;352;48.626;9.238;2023-04-29T07:34:16;20.90;99.90
736;DHT22;352;48.626;9.238;2023-04-29T07:36:43;20.40;99.90
736;DHT22;352;48.626;9.238;2023-04-29T07:39:09;20.20;99.90
736;DHT22;352;48.626;9.238;2023-04-29T07:41:40;20.30;99.90
736;DHT22;352;48.626;9.238;2023-04-29T07:44:07;20.70;99.90
736;DHT22;352;48.626;9.238;2023-04-29T07:46:34;21.20;99.90
736;DHT22;352;48.626;9.238;2023-04-29T07:49:01;21.60;99.90
736;DHT22;352;48.626;9.238;2023-04-29T07:51:28;22.00;99.50
736;DHT22;352;48.626;9.238;2023-04-29T07:53:54;22.00;98.70
736;DHT22;352;48.626;9.238;2023-04-29T07:56:21;21.90;99.40
736;DHT22;352;48.626;9.238;2023-04-29T07:58:49;21.60;98.80
736;DHT22;352;48.626;9.238;2023-04-29T08:01:16;21.40;99.70
736;DHT22;352;48.626;9.238;2023-04-29T08:03:42;21.50;99.90
736;DHT22;352;48.626;9.238;2023-04-29T08:06:10;21.80;98.90
736;DHT22;352;48.626;9.238;2023-04-29T08:08:36;22.30;98.70
736;DHT22;352;48.626;9.238;2023-04-29T08:11:03;22.70;97.40
736;DHT22;352;48.626;9.238;2023-04-29T08:13:31;23.10;98.00
736;DHT22;352;48.626;9.238;2023-04-29T08:15:59;23.30;95.50
736;DHT22;352;48.626;9.238;2023-04-29T08:18:25;23.30;96.00
736;DHT22;352;48.626;9.238;2023-04-29T08:20:52;23.50;95.50
736;DHT22;352;48.626;9.238;2023-04-29T08:23:20;23.70;94.70
736;DHT22;352;48.626;9.238;2023-04-29T08:25:47;23.90;94.80
736;DHT22;352;48.626;9.238;2023-04-29T08:28:16;24.10;94.60
736;DHT22;352;48.626;9.238;2023-04-29T08:30:43;24.30;93.90
736;DHT22;352;48.626;9.238;2023-04-29T08:33:11;24.50;94.00
736;DHT22;352;48.626;9.238;2023-04-29T08:35:39;24.60;92.90
736;DHT22;352;48.626;9.238;2023-04-29T08:38:07;24.90;92.50
736;DHT22;352;48.626;9.238;2023-04-29T08:40:34;24.90;91.10
736;DHT22;352;48.626;9.238;2023-04-29T08:43:02;24.70;92.40
736;DHT22;352;48.626;9.238;2023-04-29T08:45:29;24.50;92.80
736;DHT22;352;48.626;9.238;2023-04-29T08:47:59;23.90;91.60
736;DHT22;352;48.626;9.238;2023-04-29T08:50:29;23.90;92.20
736;DHT22;352;48.626;9.238;2023-04-29T08:52:56;23.50;92.60
736;DHT22;352;48.626;9.238;2023-04-29T08:55:22;23.10;92.60
736;DHT22;352;48.626;9.238;2023-04-29T08:57:51;22.40;92.80
736;DHT22;352;48.626;9.238;2023-04-29T09:00:19;22.30;93.10
736;DHT22;352;48.626;9.238;2023-04-29T09:02:49;21.90;94.20
736;DHT22;352;48.626;9.238;2023-04-29T09:05:17;21.70;94.60
736;DHT22;352;48.626;9.238;2023-04-29T09:07:45;21.50;94.20
736;DHT22;352;48.626;9.238;2023-04-29T09:10:13;21.40;95.80
736;DHT22;352;48.626;9.238;2023-04-29T09:12:41;21.30;95.70
736;DHT22;352;48.626;9.238;2023-04-29T09:15:08;21.30;95.60
736;DHT22;352;48.626;9.238;2023-04-29T09:17:39;21.40;96.60
736;DHT22;352;48.626;9.238;2023-04-29T09:20:24;21.90;97.00
736;DHT22;352;48.626;9.238;2023-04-29T09:22:54;22.50;94.70
736;DHT22;352;48.626;9.238;2023-04-29T09:25:21;22.80;95.10
736;DHT22;352;48.626;9.238;2023-04-29T09:27:48;22.80;93.70
736;DHT22;352;48.626;9.238;2023-04-29T09:30:15;22.80;93.90
736;DHT22;352;48.626;9.238;2023-04-29T09:32:43;22.60;93.50
736;DHT22;352;48.626;9.238;2023-04-29T09:35:21;22.40;94.30
736;DHT22;352;48.626;9.238;2023-04-29T09:37:49;22.20;94.80
736;DHT22;352;48.626;9.238;2023-04-29T09:40:29;22.00;95.00
736;DHT22;352;48.626;9.238;2023-04-29T09:42:56;21.90;94.60
736;DHT22;352;48.626;9.238;2023-04-29T10:02:01;20.00;97.70
736;DHT22;352;48.626;9.238;2023-04-29T10:14:46;20.20;99.60
736;DHT22;352;48.626;9.238;2023-04-29T10:17:48;19.70;99.90
736;DHT22;352;48.626;9.238;2023-04-29T10:20:24;19.40;99.90
736;DHT22;352;48.626;9.238;2023-04-29T10:22:56;19.40;99.90
736;DHT22;352;48.626;9.238;2023-04-29T10:25:31;19.20;99.90
736;DHT22;352;48.626;9.238;2023-04-29T10:28:02;19.20;99.90
736;DHT22;352;48.626;9.238;2023-04-29T10:30:41;19.20;99.90
736;DHT22;352;48.626;9.238;2023-04-29T10:33:11;19.10;99.90
736;DHT22;352;48.626;9.238;2023-04-29T10:35:37;19.20;99.90
736;DHT22;352;48.626;9.238;2023-04-29T10:38:10;19.60;99.90
736;DHT22;352;48.626;9.238;2023-04-29T10:40:43;20.00;99.90
736;DHT22;352;48.626;9.238;2023-04-29T10:43:11;20.60;99.90
736;DHT22;352;48.626;9.238;2023-04-29T10:45:38;21.10;99.90
736;DHT22;352;48.626;9.238;2023-04-29T10:48:10;21.70;99.40
736;DHT22;352;48.626;9.238;2023-04-29T10:51:00;22.10;98.40
736;DHT22;352;48.626;9.238;2023-04-29T10:53:28;22.00;97.40
736;DHT22;352;48.626;9.238;2023-04-29T10:55:58;21.80;96.00
736;DHT22;352;48.626;9.238;2023-04-29T10:58:42;21.30;98.30
736;DHT22;352;48.626;9.238;2023-04-29T11:01:11;20.90;97.00
736;DHT22;352;48.626;9.238;2023-04-29T11:04:01;20.70;97.90
736;DHT22;352;48.626;9.238;2023-04-29T11:06:38;20.80;99.60
736;DHT22;352;48.626;9.238;2023-04-29T11:09:12;21.00;99.00
736;DHT22;352;48.626;9.238;2023-04-29T11:11:40;21.10;99.00
736;DHT22;352;48.626;9.238;2023-04-29T11:14:08;21.10;97.30
736;DHT22;352;48.626;9.238;2023-04-29T11:16:36;20.90;98.20
736;DHT22;352;48.626;9.238;2023-04-29T11:19:05;21.20;98.60
736;DHT22;352;48.626;9.238;2023-04-29T11:21:33;21.40;97.60
736;DHT22;352;48.626;9.238;2023-04-29T11:24:01;21.40;96.90
736;DHT22;352;48.626;9.238;2023-04-29T11:26:28;21.30;96.60
736;DHT22;352;48.626;9.238;2023-04-29T11:28:56;21.40;96.70
736;DHT22;352;48.626;9.238;2023-04-29T11:31:25;21.40;97.20
736;DHT22;352;48.626;9.238;2023-04-29T11:33:53;21.40;97.30
736;DHT22;352;48.626;9.238;2023-04-29T11:36:24;21.20;98.50
736;DHT22;352;48.626;9.238;2023-04-29T11:38:52;21.20;98.30
736;DHT22;352;48.626;9.238;2023-04-29T11:41:19;21.00;98.00
736;DHT22;352;48.626;9.238;2023-04-29T11:43:46;20.60;99.10
736;DHT22;352;48.626;9.238;2023-04-29T11:46:20;20.50;98.50
736;DHT22;352;48.626;9.238;2023-04-29T11:48:47;20.60;98.70
736;DHT22;352;48.626;9.238;2023-04-29T11:51:15;20.60;98.70
736;DHT22;352;48.626;9.238;2023-04-29T11:53:44;20.50;97.70
736;DHT22;352;48.626;9.238;2023-04-29T11:56:11;20.50;98.50
736;DHT22;352;48.626;9.238;2023-04-29T11:58:37;20.30;98.50
736;DHT22;352;48.626;9.238;2023-04-29T12:01:04;20.20;99.20
736;DHT22;352;48.626;9.238;2023-04-29T12:03:32;20.10;98.90
736;DHT22;352;48.626;9.238;2023-04-29T12:06:01;20.10;97.30
736;DHT22;352;48.626;9.238;2023-04-29T12:08:29;20.00;97.30
736;DHT22;352;48.626;9.238;2023-04-29T12:10:59;19.90;97.20
736;DHT22;352;48.626;9.238;2023-04-29T12:13:28;19.80;97.60
736;DHT22;352;48.626;9.238;2023-04-29T12:15:55;19.80;98.30
736;DHT22;352;48.626;9.238;2023-04-29T12:18:23;19.80;95.90
736;DHT22;352;48.626;9.238;2023-04-29T12:20:50;19.70;97.10
736;DHT22;352;48.626;9.238;2023-04-29T12:23:18;19.70;97.70
736;DHT22;352;48.626;9.238;2023-04-29T12:25:48;19.80;98.40
736;DHT22;352;48.626;9.238;2023-04-29T12:28:18;20.00;97.20
736;DHT22;352;48.626;9.238;2023-04-29T12:30:45;20.20;96.90
736;DHT22;352;48.626;9.238;2023-04-29T12:33:17;20.10;97.00
736;DHT22;352;48.626;9.238;2023-04-29T12:35:44;20.20;96.90
736;DHT22;352;48.626;9.238;2023-04-29T12:38:15;20.20;96.50
736;DHT22;352;48.626;9.238;2023-04-29T12:40:43;20.10;95.60
736;DHT22;352;48.626;9.238;2023-04-29T12:43:10;19.80;95.90
736;DHT22;352;48.626;9.238;2023-04-29T12:45:38;19.60;96.00
736;DHT22;352;48.626;9.238;2023-04-29T12:48:05;19.40;96.50
736;DHT22;352;48.626;9.238;2023-04-29T12:50:34;19.30;99.20
736;DHT22;352;48.626;9.238;2023-04-29T12:53:02;19.20;99.10
736;DHT22;352;48.626;9.238;2023-04-29T12:55:31;19.10;99.10
736;DHT22;352;48.626;9.238;2023-04-29T12:57:58;18.90;99.50
736;DHT22;352;48.626;9.238;2023-04-29T13:00:25;18.90;99.90
736;DHT22;352;48.626;9.238;2023-04-29T13:02:53;18.70;99.90
736;DHT22;352;48.626;9.238;2023-04-29T13:05:20;18.60;99.90
736;DHT22;352;48.626;9.238;2023-04-29T13:07:47;18.50;99.90
736;DHT22;352;48.626;9.238;2023-04-29T13:10:14;18.50;99.90
736;DHT22;352;48.626;9.238;2023-04-29T13:12:41;18.40;99.90
736;DHT22;352;48.626;9.238;2023-04-29T13:15:09;18.40;99.90
736;DHT22;352;48.626;9.238;2023-04-29T13:17:36;18.50;99.90
736;DHT22;352;48.626;9.238;2023-04-29T13:20:07;18.60;99.90
736;DHT22;352;48.626;9.238;2023-04-29T13:22:34;18.70;99.90
736;DHT22;352;48.626;9.238;2023-04-29T13:25:01;18.70;99.90
736;DHT22;352;48.626;9.238;2023-04-29T13:27:29;18.70;99.90
736;DHT22;352;48.626;9.238;2023-04-29T13:29:55;18.80;99.90
736;DHT22;352;48.626;9.238;2023-04-29T13:32:22;18.70;99.90
736;DHT22;352;48.626;9.238;2023-04-29T13:34:49;18.60;99.90
736;DHT22;352;48.626;9.238;2023-04-29T13:37:18;18.60;99.90
736;DHT22;352;48.626;9.238;2023-04-29T13:39:45;18.60;99.90
736;DHT22;352;48.626;9.238;2023-04-29T13:42:12;18.60;99.90
736;DHT22;352;48.626;9.238;2023-04-29T13:44:38;18.70;99.90
736;DHT22;352;48.626;9.238;2023-04-29T13:47:09;18.90;99.90
736;DHT22;352;48.626;9.238;2023-04-29T13:49:36;18.90;99.60
736;DHT22;352;48.626;9.238;2023-04-29T13:52:03;18.90;99.70
736;DHT22;352;48.626;9.238;2023-04-29T13:54:31;18.80;99.50
736;DHT22;352;48.626;9.238;2023-04-29T13:56:58;18.70;99.70
736;DHT22;352;48.626;9.238;2023-04-29T13:59:25;18.60;99.90
736;DHT22;352;48.626;9.238;2023-04-29T14:01:53;18.50;99.90
736;DHT22;352;48.626;9.238;2023-04-29T14:04:19;18.50;99.90
736;DHT22;352;48.626;9.238;2023-04-29T14:06:46;18.60;99.90
736;DHT22;352;48.626;9.238;2023-04-29T14:09:13;18.60;99.90
736;DHT22;352;48.626;9.238;2023-04-29T14:11:41;18.60;99.90
736;DHT22;352;48.626;9.238;2023-04-29T14:14:08;18.50;99.90
736;DHT22;352;48.626;9.238;2023-04-29T14:16:35;18.50;99.90
736;DHT22;352;48.626;9.238;2023-04-29T14:19:02;18.50;99.90
736;DHT22;352;48.626;9.238;2023-04-29T14:21:29;18.60;99.90
736;DHT22;352;48.626;9.238;2023-04-29T14:23:57;18.70;99.90
736;DHT22;352;48.626;9.238;2023-04-29T14:26:24;18.80;99.90
736;DHT22;352;48.626;9.238;2023-04-29T14:28:53;18.90;99.90
736;DHT22;352;48.626;9.238;2023-04-29T14:31:22;18.70;99.90
736;DHT22;352;48.626;9.238;2023-04-29T14:33:49;18.60;99.90
736;DHT22;352;48.626;9.238;2023-04-29T14:36:16;18.50;99.90
736;DHT22;352;48.626;9.238;2023-04-29T14:38:44;18.40;99.90
736;DHT22;352;48.626;9.238;2023-04-29T14:41:11;18.40;99.90
736;DHT22;352;48.626;9.238;2023-04-29T14:43:38;18.30;99.90
736;DHT22;352;48.626;9.238;2023-04-29T14:46:08;18.10;99.90
736;DHT22;352;48.626;9.238;2023-04-29T14:48:35;18.10;99.90
736;DHT22;352;48.626;9.238;2023-04-29T14:51:03;18.20;99.90
736;DHT22;352;48.626;9.238;2023-04-29T14:53:30;18.30;99.90
736;DHT22;352;48.626;9.238;2023-04-29T14:55:58;18.30;99.80
736;DHT22;352;48.626;9.238;2023-04-29T14:58:25;18.30;99.90
736;DHT22;352;48.626;9.238;2023-04-29T15:00:52;18.30;99.90
736;DHT22;352;48.626;9.238;2023-04-29T15:03:21;18.20;99.90
736;DHT22;352;48.626;9.238;2023-04-29T15:05:48;18.20;99.90
736;DHT22;352;48.626;9.238;2023-04-29T15:08:16;18.10;99.90
736;DHT22;352;48.626;9.238;2023-04-29T15:10:43;18.10;99.90
736;DHT22;352;48.626;9.238;2023-04-29T15:13:11;18.00;99.90
736;DHT22;352;48.626;9.238;2023-04-29T15:15:38;18.00;99.90
736;DHT22;352;48.626;9.238;2023-04-29T15:18:05;17.80;99.90
736;DHT22;352;48.626;9.238;2023-04-29T15:20:35;17.90;99.90
736;DHT22;352;48.626;9.238;2023-04-29T15:23:02;17.80;99.90
736;DHT22;352;48.626;9.238;2023-04-29T15:25:30;17.80;99.90
736;DHT22;352;48.626;9.238;2023-04-29T15:27:59;17.70;99.90
736;DHT22;352;48.626;9.238;2023-04-29T15:30:26;17.80;99.90
736;DHT22;352;48.626;9.238;2023-04-29T15:32:53;17.80;99.90
736;DHT22;352;48.626;9.238;2023-04-29T15:35:21;17.90;99.90
736;DHT22;352;48.626;9.238;2023-04-29T15:37:49;17.90;99.90
736;DHT22;352;48.626;9.238;2023-04-29T15:40:16;18.00;99.90
736;DHT22;352;48.626;9.238;2023-04-29T15:42:44;18.10;99.90
736;DHT22;352;48.626;9.238;2023-04-29T15:45:11;18.10;99.90
736;DHT22;352;48.626;9.238;2023-04-29T15:47:38;17.90;99.90
736;DHT22;352;48.626;9.238;2023-04-29T15:50:07;17.70;99.90
736;DHT22;352;48.626;9.238;2023-04-29T15:52:35;17.70;99.90
736;DHT22;352;48.626;9.238;2023-04-29T15:55:04;17.80;99.90
736;DHT22;352;48.626;9.238;2023-04-29T15:57:31;17.80;99.90
736;DHT22;352;48.626;9.238;2023-04-29T15:59:59;17.90;99.90
736;DHT22;352;48.626;9.238;2023-04-29T16:02:26;17.90;99.90
736;DHT22;352;48.626;9.238;2023-04-29T16:04:53;17.80;99.90
736;DHT22;352;48.626;9.238;2023-04-29T16:07:20;17.70;99.90
736;DHT22;352;48.626;9.238;2023-04-29T16:09:47;17.50;99.90
736;DHT22;352;48.626;9.238;2023-04-29T16:12:16;17.60;99.90
736;DHT22;352;48.626;9.238;2023-04-29T16:14:45;17.60;99.90
736;DHT22;352;48.626;9.238;2023-04-29T16:17:12;17.70;99.90
736;DHT22;352;48.626;9.238;2023-04-29T16:19:39;17.60;99.90
736;DHT22;352;48.626;9.238;2023-04-29T16:22:06;17.60;99.90
736;DHT22;352;48.626;9.238;2023-04-29T16:24:33;17.40;99.90
736;DHT22;352;48.626;9.238;2023-04-29T16:27:01;17.30;99.90
736;DHT22;352;48.626;9.238;2023-04-29T16:29:29;17.20;99.90
736;DHT22;352;48.626;9.238;2023-04-29T16:31:56;17.00;99.90
736;DHT22;352;48.626;9.238;2023-04-29T16:34:23;16.80;99.90
736;DHT22;352;48.626;9.238;2023-04-29T16:36:50;16.70;99.90
736;DHT22;352;48.626;9.238;2023-04-29T16:39:18;16.70;99.90
736;DHT22;352;48.626;9.238;2023-04-29T16:41:45;16.70;99.90
736;DHT22;352;48.626;9.238;2023-04-29T16:44:12;16.90;99.90
736;DHT22;352;48.626;9.238;2023-04-29T16:46:41;16.90;99.90
736;DHT22;352;48.626;9.238;2023-04-29T16:49:08;17.00;99.90
736;DHT22;352;48.626;9.238;2023-04-29T16:51:35;17.00;99.90
736;DHT22;352;48.626;9.238;2023-04-29T16:54:03;17.10;99.90
736;DHT22;352;48.626;9.238;2023-04-29T16:56:30;17.10;99.90
736;DHT22;352;48.626;9.238;2023-04-29T16:58:57;17.10;99.90
736;DHT22;352;48.626;9.238;2023-04-29T17:01:24;17.00;99.90
736;DHT22;352;48.626;9.238;2023-04-29T17:03:54;16.90;99.90
736;DHT22;352;48.626;9.238;2023-04-29T17:06:22;16.70;99.90